sensor_id;sensor_type;location;lat;lon;timestamp;P1;durP1;ratioP1;P2;durP2;ratioP2
68583;SDS011;55557;49.220;11.150;2023-11-18T00:01:23;9.50;;;6.70;;
68583;SDS011;55557;49.220;11.150;2023-11-18T00:03:55;8.57;;;6.13;;
68583;SDS011;55557;49.220;11.150;2023-11-18T00:06:21;8.10;;;6.77;;
68583;SDS011;55557;49.220;11.150;2023-11-18T00:08:47;8.13;;;5.90;;
68583;SDS011;55557;49.220;11.150;2023-11-18T00:11:13;9.63;;;6.30;;
68583;SDS011;55557;49.220;11.150;2023-11-18T00:13:39;13.77;;;7.10;;
68583;SDS011;55557;49.220;11.150;2023-11-18T00:16:07;8.87;;;6.53;;
68583;SDS011;55557;49.220;11.150;2023-11-18T00:18:37;8.50;;;5.40;;
68583;SDS011;55557;49.220;11.150;2023-11-18T00:21:03;9.27;;;5.87;;
68583;SDS011;55557;49.220;11.150;2023-11-18T00:23:29;9.80;;;6.00;;
68583;SDS011;55557;49.220;11.150;2023-11-18T00:25:55;7.53;;;5.20;;
68583;SDS011;55557;49.220;11.150;2023-11-18T00:28:21;10.17;;;5.77;;
68583;SDS011;55557;49.220;11.150;2023-11-18T00:30:47;7.57;;;4.57;;
68583;SDS011;55557;49.220;11.150;2023-11-18T00:33:13;6.90;;;4.80;;
68583;SDS011;55557;49.220;11.150;2023-11-18T00:35:39;4.73;;;4.20;;
68583;SDS011;55557;49.220;11.150;2023-11-18T00:38:06;9.93;;;5.57;;
68583;SDS011;55557;49.220;11.150;2023-11-18T00:40:32;7.53;;;4.30;;
68583;SDS011;55557;49.220;11.150;2023-11-18T00:42:58;9.03;;;5.40;;
68583;SDS011;55557;49.220;11.150;2023-11-18T00:45:24;7.40;;;4.80;;
68583;SDS011;55557;49.220;11.150;2023-11-18T00:47:50;9.50;;;5.33;;
68583;SDS011;55557;49.220;11.150;2023-11-18T00:50:16;6.10;;;4.80;;
68583;SDS011;55557;49.220;11.150;2023-11-18T00:52:42;17.43;;;4.73;;
68583;SDS011;55557;49.220;11.150;2023-11-18T00:55:08;6.73;;;4.80;;
68583;SDS011;55557;49.220;11.150;2023-11-18T00:57:36;6.63;;;5.43;;
68583;SDS011;55557;49.220;11.150;2023-11-18T01:00:04;6.47;;;4.90;;
68583;SDS011;55557;49.220;11.150;2023-11-18T01:02:30;7.50;;;5.40;;
68583;SDS011;55557;49.220;11.150;2023-11-18T01:04:57;8.20;;;5.13;;
68583;SDS011;55557;49.220;11.150;2023-11-18T01:07:23;7.77;;;5.47;;
68583;SDS011;55557;49.220;11.150;2023-11-18T01:09:49;6.47;;;4.90;;
68583;SDS011;55557;49.220;11.150;2023-11-18T01:12:15;7.43;;;4.67;;
68583;SDS011;55557;49.220;11.150;2023-11-18T01:14:41;9.30;;;5.27;;
68583;SDS011;55557;49.220;11.150;2023-11-18T01:17:07;7.77;;;4.13;;
68583;SDS011;55557;49.220;11.150;2023-11-18T01:19:34;9.80;;;5.03;;
68583;SDS011;55557;49.220;11.150;2023-11-18T01:22:00;9.30;;;4.60;;
68583;SDS011;55557;49.220;11.150;2023-11-18T01:24:30;10.53;;;5.17;;
68583;SDS011;55557;49.220;11.150;2023-11-18T01:26:56;6.87;;;4.87;;
68583;SDS011;55557;49.220;11.150;2023-11-18T01:29:24;9.67;;;4.57;;
68583;SDS011;55557;49.220;11.150;2023-11-18T01:31:50;5.97;;;4.33;;
68583;SDS011;55557;49.220;11.150;2023-11-18T01:34:23;5.27;;;4.03;;
68583;SDS011;55557;49.220;11.150;2023-11-18T01:36:50;5.33;;;4.23;;
68583;SDS011;55557;49.220;11.150;2023-11-18T01:39:21;8.53;;;4.00;;
68583;SDS011;55557;49.220;11.150;2023-11-18T01:41:47;5.70;;;4.20;;
68583;SDS011;55557;49.220;11.150;2023-11-18T01:44:14;10.13;;;4.93;;
68583;SDS011;55557;49.220;11.150;2023-11-18T01:46:40;8.37;;;4.47;;
68583;SDS011;55557;49.220;11.150;2023-11-18T01:49:09;9.03;;;4.60;;
68583;SDS011;55557;49.220;11.150;2023-11-18T01:51:36;9.67;;;5.07;;
68583;SDS011;55557;49.220;11.150;2023-11-18T01:54:02;8.90;;;4.83;;
68583;SDS011;55557;49.220;11.150;2023-11-18T01:56:30;5.33;;;4.03;;
68583;SDS011;55557;49.220;11.150;2023-11-18T01:58:57;8.93;;;4.50;;
68583;SDS011;55557;49.220;11.150;2023-11-18T02:01:25;5.83;;;4.43;;
68583;SDS011;55557;49.220;11.150;2023-11-18T02:03:51;5.37;;;4.23;;
68583;SDS011;55557;49.220;11.150;2023-11-18T02:06:17;9.53;;;4.57;;
68583;SDS011;55557;49.220;11.150;2023-11-18T02:08:43;6.03;;;4.17;;
68583;SDS011;55557;49.220;11.150;2023-11-18T02:11:30;5.00;;;4.10;;
68583;SDS011;55557;49.220;11.150;2023-11-18T02:13:58;5.90;;;4.00;;
68583;SDS011;55557;49.220;11.150;2023-11-18T02:16:27;7.03;;;4.70;;
68583;SDS011;55557;49.220;11.150;2023-11-18T02:18:53;6.73;;;4.40;;
68583;SDS011;55557;49.220;11.150;2023-11-18T02:21:20;7.03;;;4.43;;
68583;SDS011;55557;49.220;11.150;2023-11-18T02:23:48;8.00;;;5.20;;
68583;SDS011;55557;49.220;11.150;2023-11-18T02:26:21;9.07;;;4.80;;
68583;SDS011;55557;49.220;11.150;2023-11-18T02:28:47;10.07;;;4.90;;
68583;SDS011;55557;49.220;11.150;2023-11-18T02:31:15;6.60;;;4.67;;
68583;SDS011;55557;49.220;11.150;2023-11-18T02:33:44;6.67;;;4.20;;
68583;SDS011;55557;49.220;11.150;2023-11-18T02:36:34;7.93;;;4.27;;
68583;SDS011;55557;49.220;11.150;2023-11-18T02:39:04;5.60;;;3.73;;
68583;SDS011;55557;49.220;11.150;2023-11-18T02:41:36;4.97;;;3.97;;
68583;SDS011;55557;49.220;11.150;2023-11-18T02:44:03;6.27;;;4.57;;
68583;SDS011;55557;49.220;11.150;2023-11-18T02:46:33;6.57;;;4.07;;
68583;SDS011;55557;49.220;11.150;2023-11-18T02:49:00;7.30;;;5.10;;
68583;SDS011;55557;49.220;11.150;2023-11-18T02:51:27;6.00;;;4.17;;
68583;SDS011;55557;49.220;11.150;2023-11-18T02:53:56;4.33;;;3.73;;
68583;SDS011;55557;49.220;11.150;2023-11-18T02:56:22;6.43;;;4.60;;
68583;SDS011;55557;49.220;11.150;2023-11-18T02:58:48;8.60;;;4.20;;
68583;SDS011;55557;49.220;11.150;2023-11-18T03:01:14;8.63;;;4.03;;
68583;SDS011;55557;49.220;11.150;2023-11-18T03:03:40;5.50;;;3.80;;
68583;SDS011;55557;49.220;11.150;2023-11-18T03:06:07;6.47;;;4.43;;
68583;SDS011;55557;49.220;11.150;2023-11-18T03:08:34;6.70;;;3.87;;
68583;SDS011;55557;49.220;11.150;2023-11-18T03:11:00;5.40;;;3.97;;
68583;SDS011;55557;49.220;11.150;2023-11-18T03:13:29;5.73;;;3.97;;
68583;SDS011;55557;49.220;11.150;2023-11-18T03:15:57;7.37;;;5.13;;
68583;SDS011;55557;49.220;11.150;2023-11-18T03:18:23;6.10;;;4.40;;
68583;SDS011;55557;49.220;11.150;2023-11-18T03:20:49;6.70;;;4.37;;
68583;SDS011;55557;49.220;11.150;2023-11-18T03:23:15;5.47;;;4.27;;
68583;SDS011;55557;49.220;11.150;2023-11-18T03:25:41;6.20;;;4.63;;
68583;SDS011;55557;49.220;11.150;2023-11-18T03:28:07;7.63;;;4.57;;
68583;SDS011;55557;49.220;11.150;2023-11-18T03:30:33;6.30;;;4.50;;
68583;SDS011;55557;49.220;11.150;2023-11-18T03:33:01;5.63;;;4.00;;
68583;SDS011;55557;49.220;11.150;2023-11-18T03:35:28;5.37;;;4.10;;
68583;SDS011;55557;49.220;11.150;2023-11-18T03:37:55;6.37;;;4.30;;
68583;SDS011;55557;49.220;11.150;2023-11-18T03:40:21;6.17;;;4.27;;
68583;SDS011;55557;49.220;11.150;2023-11-18T03:42:47;9.57;;;4.77;;
68583;SDS011;55557;49.220;11.150;2023-11-18T03:45:13;8.27;;;4.43;;
68583;SDS011;55557;49.220;11.150;2023-11-18T03:47:43;8.10;;;3.93;;
68583;SDS011;55557;49.220;11.150;2023-11-18T03:50:10;5.17;;;3.73;;
68583;SDS011;55557;49.220;11.150;2023-11-18T03:52:38;7.53;;;4.00;;
68583;SDS011;55557;49.220;11.150;2023-11-18T03:55:04;5.70;;;3.73;;
68583;SDS011;55557;49.220;11.150;2023-11-18T03:57:30;5.87;;;3.90;;
68583;SDS011;55557;49.220;11.150;2023-11-18T03:59:56;4.87;;;3.70;;
68583;SDS011;55557;49.220;11.150;2023-11-18T04:02:22;7.83;;;4.47;;
68583;SDS011;55557;49.220;11.150;2023-11-18T04:04:48;7.10;;;4.53;;
68583;SDS011;55557;49.220;11.150;2023-11-18T04:07:14;11.40;;;5.37;;
68583;SDS011;55557;49.220;11.150;2023-11-18T04:09:40;10.20;;;5.70;;
68583;SDS011;55557;49.220;11.150;2023-11-18T04:12:07;10.93;;;5.47;;
68583;SDS011;55557;49.220;11.150;2023-11-18T04:14:33;8.40;;;5.13;;
68583;SDS011;55557;49.220;11.150;2023-11-18T04:16:59;8.47;;;4.77;;
68583;SDS011;55557;49.220;11.150;2023-11-18T04:19:25;10.93;;;5.40;;
68583;SDS011;55557;49.220;11.150;2023-11-18T04:21:51;7.43;;;5.10;;
68583;SDS011;55557;49.220;11.150;2023-11-18T04:24:17;8.87;;;6.07;;
68583;SDS011;55557;49.220;11.150;2023-11-18T04:26:43;9.93;;;5.20;;
68583;SDS011;55557;49.220;11.150;2023-11-18T04:29:09;8.73;;;5.37;;
68583;SDS011;55557;49.220;11.150;2023-11-18T04:31:35;9.53;;;5.07;;
68583;SDS011;55557;49.220;11.150;2023-11-18T04:34:01;9.00;;;5.10;;
68583;SDS011;55557;49.220;11.150;2023-11-18T04:36:29;6.87;;;4.53;;
68583;SDS011;55557;49.220;11.150;2023-11-18T04:38:56;10.07;;;5.37;;
68583;SDS011;55557;49.220;11.150;2023-11-18T04:41:24;7.40;;;4.47;;
68583;SDS011;55557;49.220;11.150;2023-11-18T04:43:53;7.50;;;4.50;;
68583;SDS011;55557;49.220;11.150;2023-11-18T04:46:19;8.73;;;4.73;;
68583;SDS011;55557;49.220;11.150;2023-11-18T04:48:45;6.53;;;4.67;;
68583;SDS011;55557;49.220;11.150;2023-11-18T04:51:11;6.57;;;4.77;;
68583;SDS011;55557;49.220;11.150;2023-11-18T04:53:37;6.00;;;4.47;;
68583;SDS011;55557;49.220;11.150;2023-11-18T04:56:04;9.50;;;4.67;;
68583;SDS011;55557;49.220;11.150;2023-11-18T04:58:31;7.20;;;4.73;;
68583;SDS011;55557;49.220;11.150;2023-11-18T05:00:57;6.50;;;4.60;;
68583;SDS011;55557;49.220;11.150;2023-11-18T05:03:23;6.57;;;5.10;;
68583;SDS011;55557;49.220;11.150;2023-11-18T05:05:49;9.73;;;5.33;;
68583;SDS011;55557;49.220;11.150;2023-11-18T05:08:19;9.47;;;4.87;;
68583;SDS011;55557;49.220;11.150;2023-11-18T05:10:49;10.97;;;5.90;;
68583;SDS011;55557;49.220;11.150;2023-11-18T05:13:23;9.00;;;5.20;;
68583;SDS011;55557;49.220;11.150;2023-11-18T05:15:52;7.37;;;5.17;;
68583;SDS011;55557;49.220;11.150;2023-11-18T05:18:19;7.77;;;5.20;;
68583;SDS011;55557;49.220;11.150;2023-11-18T05:20:46;12.77;;;5.63;;
68583;SDS011;55557;49.220;11.150;2023-11-18T05:23:12;9.37;;;4.77;;
68583;SDS011;55557;49.220;11.150;2023-11-18T05:25:42;6.43;;;4.30;;
68583;SDS011;55557;49.220;11.150;2023-11-18T05:28:08;7.77;;;5.47;;
68583;SDS011;55557;49.220;11.150;2023-11-18T05:30:35;7.97;;;4.57;;
68583;SDS011;55557;49.220;11.150;2023-11-18T05:33:04;8.77;;;4.43;;
68583;SDS011;55557;49.220;11.150;2023-11-18T05:35:31;7.07;;;4.87;;
68583;SDS011;55557;49.220;11.150;2023-11-18T05:37:57;5.87;;;4.23;;
68583;SDS011;55557;49.220;11.150;2023-11-18T05:40:26;8.23;;;5.90;;
68583;SDS011;55557;49.220;11.150;2023-11-18T05:42:54;9.13;;;6.30;;
68583;SDS011;55557;49.220;11.150;2023-11-18T05:45:20;11.57;;;7.53;;
68583;SDS011;55557;49.220;11.150;2023-11-18T05:47:55;8.43;;;6.37;;
68583;SDS011;55557;49.220;11.150;2023-11-18T05:50:22;10.10;;;6.13;;
68583;SDS011;55557;49.220;11.150;2023-11-18T05:52:49;9.07;;;5.20;;
68583;SDS011;55557;49.220;11.150;2023-11-18T05:55:16;7.30;;;5.00;;
68583;SDS011;55557;49.220;11.150;2023-11-18T05:57:42;7.03;;;5.13;;
68583;SDS011;55557;49.220;11.150;2023-11-18T06:00:10;7.57;;;5.40;;
68583;SDS011;55557;49.220;11.150;2023-11-18T06:02:40;6.90;;;5.67;;
68583;SDS011;55557;49.220;11.150;2023-11-18T06:05:06;9.70;;;6.80;;
68583;SDS011;55557;49.220;11.150;2023-11-18T06:07:32;11.03;;;6.57;;
68583;SDS011;55557;49.220;11.150;2023-11-18T06:10:00;9.83;;;6.83;;
68583;SDS011;55557;49.220;11.150;2023-11-18T06:12:28;11.80;;;7.33;;
68583;SDS011;55557;49.220;11.150;2023-11-18T06:14:55;12.00;;;6.17;;
68583;SDS011;55557;49.220;11.150;2023-11-18T06:17:22;11.30;;;6.23;;
68583;SDS011;55557;49.220;11.150;2023-11-18T06:19:48;7.73;;;6.17;;
68583;SDS011;55557;49.220;11.150;2023-11-18T06:22:14;9.40;;;5.77;;
68583;SDS011;55557;49.220;11.150;2023-11-18T06:24:40;10.17;;;6.47;;
68583;SDS011;55557;49.220;11.150;2023-11-18T06:27:08;9.57;;;5.67;;
68583;SDS011;55557;49.220;11.150;2023-11-18T06:29:35;6.53;;;5.20;;
68583;SDS011;55557;49.220;11.150;2023-11-18T06:32:01;8.40;;;5.97;;
68583;SDS011;55557;49.220;11.150;2023-11-18T06:34:27;14.97;;;5.57;;
68583;SDS011;55557;49.220;11.150;2023-11-18T06:36:53;8.30;;;4.97;;
68583;SDS011;55557;49.220;11.150;2023-11-18T06:39:21;7.40;;;5.07;;
68583;SDS011;55557;49.220;11.150;2023-11-18T06:41:54;8.37;;;5.40;;
68583;SDS011;55557;49.220;11.150;2023-11-18T06:44:21;7.10;;;5.10;;
68583;SDS011;55557;49.220;11.150;2023-11-18T06:46:49;9.83;;;5.83;;
68583;SDS011;55557;49.220;11.150;2023-11-18T06:49:16;7.67;;;6.03;;
68583;SDS011;55557;49.220;11.150;2023-11-18T06:51:42;8.10;;;4.27;;
68583;SDS011;55557;49.220;11.150;2023-11-18T06:54:08;7.47;;;5.40;;
68583;SDS011;55557;49.220;11.150;2023-11-18T06:56:37;7.17;;;5.30;;
68583;SDS011;55557;49.220;11.150;2023-11-18T06:59:06;6.37;;;4.80;;
68583;SDS011;55557;49.220;11.150;2023-11-18T07:01:35;7.00;;;5.07;;
68583;SDS011;55557;49.220;11.150;2023-11-18T07:04:02;6.20;;;4.47;;
68583;SDS011;55557;49.220;11.150;2023-11-18T07:06:28;7.27;;;5.13;;
68583;SDS011;55557;49.220;11.150;2023-11-18T07:08:54;8.50;;;5.57;;
68583;SDS011;55557;49.220;11.150;2023-11-18T07:11:25;9.13;;;5.30;;
68583;SDS011;55557;49.220;11.150;2023-11-18T07:13:51;7.30;;;4.80;;
68583;SDS011;55557;49.220;11.150;2023-11-18T07:16:24;15.80;;;6.47;;
68583;SDS011;55557;49.220;11.150;2023-11-18T07:18:50;6.43;;;4.80;;
68583;SDS011;55557;49.220;11.150;2023-11-18T07:21:16;6.87;;;5.07;;
68583;SDS011;55557;49.220;11.150;2023-11-18T07:23:42;7.03;;;5.40;;
68583;SDS011;55557;49.220;11.150;2023-11-18T07:26:08;7.70;;;5.13;;
68583;SDS011;55557;49.220;11.150;2023-11-18T07:28:35;12.17;;;5.23;;
68583;SDS011;55557;49.220;11.150;2023-11-18T07:31:01;7.73;;;5.07;;
68583;SDS011;55557;49.220;11.150;2023-11-18T07:33:29;14.20;;;5.93;;
68583;SDS011;55557;49.220;11.150;2023-11-18T07:35:59;7.03;;;5.47;;
68583;SDS011;55557;49.220;11.150;2023-11-18T07:38:25;8.20;;;6.07;;
68583;SDS011;55557;49.220;11.150;2023-11-18T07:40:55;7.87;;;5.70;;
68583;SDS011;55557;49.220;11.150;2023-11-18T07:43:22;8.77;;;6.20;;
68583;SDS011;55557;49.220;11.150;2023-11-18T07:45:48;9.93;;;6.60;;
68583;SDS011;55557;49.220;11.150;2023-11-18T07:48:20;13.00;;;7.07;;
68583;SDS011;55557;49.220;11.150;2023-11-18T07:50:47;11.00;;;7.07;;
68583;SDS011;55557;49.220;11.150;2023-11-18T07:53:13;12.80;;;8.47;;
68583;SDS011;55557;49.220;11.150;2023-11-18T07:55:39;11.98;;;8.52;;
68583;SDS011;55557;49.220;11.150;2023-11-18T07:58:06;13.77;;;7.80;;
68583;SDS011;55557;49.220;11.150;2023-11-18T08:00:41;12.17;;;8.67;;
68583;SDS011;55557;49.220;11.150;2023-11-18T08:03:11;11.83;;;7.97;;
68583;SDS011;55557;49.220;11.150;2023-11-18T08:05:38;12.60;;;8.30;;
68583;SDS011;55557;49.220;11.150;2023-11-18T08:08:11;19.07;;;7.93;;
68583;SDS011;55557;49.220;11.150;2023-11-18T08:10:37;11.83;;;7.67;;
68583;SDS011;55557;49.220;11.150;2023-11-18T08:13:06;12.53;;;7.73;;
68583;SDS011;55557;49.220;11.150;2023-11-18T08:15:42;11.50;;;8.37;;
68583;SDS011;55557;49.220;11.150;2023-11-18T08:18:12;12.53;;;8.83;;
68583;SDS011;55557;49.220;11.150;2023-11-18T08:20:38;12.33;;;7.97;;
68583;SDS011;55557;49.220;11.150;2023-11-18T08:23:04;12.20;;;8.80;;
68583;SDS011;55557;49.220;11.150;2023-11-18T08:25:30;11.73;;;8.03;;
68583;SDS011;55557;49.220;11.150;2023-11-18T08:27:58;10.83;;;8.07;;
68583;SDS011;55557;49.220;11.150;2023-11-18T08:30:25;13.23;;;9.07;;
68583;SDS011;55557;49.220;11.150;2023-11-18T08:32:52;14.97;;;9.30;;
68583;SDS011;55557;49.220;11.150;2023-11-18T08:35:18;12.80;;;8.47;;
68583;SDS011;55557;49.220;11.150;2023-11-18T08:37:45;14.13;;;8.50;;
68583;SDS011;55557;49.220;11.150;2023-11-18T08:40:12;11.77;;;7.97;;
68583;SDS011;55557;49.220;11.150;2023-11-18T08:42:43;11.77;;;8.37;;
68583;SDS011;55557;49.220;11.150;2023-11-18T08:45:13;11.37;;;8.00;;
68583;SDS011;55557;49.220;11.150;2023-11-18T08:47:41;12.17;;;7.20;;
68583;SDS011;55557;49.220;11.150;2023-11-18T08:50:07;11.00;;;7.97;;
68583;SDS011;55557;49.220;11.150;2023-11-18T08:52:37;11.67;;;7.33;;
68583;SDS011;55557;49.220;11.150;2023-11-18T08:55:08;10.10;;;6.70;;
68583;SDS011;55557;49.220;11.150;2023-11-18T08:57:45;12.83;;;7.47;;
68583;SDS011;55557;49.220;11.150;2023-11-18T09:00:26;12.20;;;7.07;;
68583;SDS011;55557;49.220;11.150;2023-11-18T09:03:31;10.53;;;6.97;;
68583;SDS011;55557;49.220;11.150;2023-11-18T09:06:01;11.10;;;7.70;;
68583;SDS011;55557;49.220;11.150;2023-11-18T09:08:32;10.37;;;7.27;;
68583;SDS011;55557;49.220;11.150;2023-11-18T09:11:03;12.30;;;8.13;;
68583;SDS011;55557;49.220;11.150;2023-11-18T09:13:33;13.67;;;9.00;;
68583;SDS011;55557;49.220;11.150;2023-11-18T09:16:05;12.20;;;8.07;;
68583;SDS011;55557;49.220;11.150;2023-11-18T09:18:37;11.30;;;7.80;;
68583;SDS011;55557;49.220;11.150;2023-11-18T09:21:04;13.03;;;8.63;;
68583;SDS011;55557;49.220;11.150;2023-11-18T09:23:31;12.80;;;8.90;;
68583;SDS011;55557;49.220;11.150;2023-11-18T09:25:59;13.73;;;8.90;;
68583;SDS011;55557;49.220;11.150;2023-11-18T09:28:26;15.17;;;9.93;;
68583;SDS011;55557;49.220;11.150;2023-11-18T09:30:55;13.53;;;9.67;;
68583;SDS011;55557;49.220;11.150;2023-11-18T09:33:25;14.53;;;9.67;;
68583;SDS011;55557;49.220;11.150;2023-11-18T09:36:00;13.73;;;8.77;;
68583;SDS011;55557;49.220;11.150;2023-11-18T09:38:30;11.40;;;8.00;;
68583;SDS011;55557;49.220;11.150;2023-11-18T09:40:56;14.27;;;8.53;;
68583;SDS011;55557;49.220;11.150;2023-11-18T09:43:27;14.60;;;8.73;;
68583;SDS011;55557;49.220;11.150;2023-11-18T09:45:57;12.83;;;8.77;;
68583;SDS011;55557;49.220;11.150;2023-11-18T09:48:27;16.93;;;10.60;;
68583;SDS011;55557;49.220;11.150;2023-11-18T09:50:53;14.37;;;8.80;;
68583;SDS011;55557;49.220;11.150;2023-11-18T09:53:19;13.73;;;9.73;;
68583;SDS011;55557;49.220;11.150;2023-11-18T09:55:52;13.43;;;9.23;;
68583;SDS011;55557;49.220;11.150;2023-11-18T09:58:24;16.90;;;10.67;;
68583;SDS011;55557;49.220;11.150;2023-11-18T10:00:52;16.37;;;10.80;;
68583;SDS011;55557;49.220;11.150;2023-11-18T10:03:23;14.87;;;9.77;;
68583;SDS011;55557;49.220;11.150;2023-11-18T10:05:49;16.13;;;10.20;;
68583;SDS011;55557;49.220;11.150;2023-11-18T10:08:19;16.67;;;10.43;;
68583;SDS011;55557;49.220;11.150;2023-11-18T10:10:50;16.43;;;10.63;;
68583;SDS011;55557;49.220;11.150;2023-11-18T10:13:16;15.83;;;10.33;;
68583;SDS011;55557;49.220;11.150;2023-11-18T10:15:49;13.37;;;10.03;;
68583;SDS011;55557;49.220;11.150;2023-11-18T10:18:18;16.27;;;10.37;;
68583;SDS011;55557;49.220;11.150;2023-11-18T10:20:48;16.43;;;11.33;;
68583;SDS011;55557;49.220;11.150;2023-11-18T10:23:19;18.73;;;10.17;;
68583;SDS011;55557;49.220;11.150;2023-11-18T10:25:52;14.30;;;9.80;;
68583;SDS011;55557;49.220;11.150;2023-11-18T10:28:25;12.60;;;9.23;;
68583;SDS011;55557;49.220;11.150;2023-11-18T10:31:01;12.47;;;8.70;;
68583;SDS011;55557;49.220;11.150;2023-11-18T10:33:35;14.37;;;8.87;;
68583;SDS011;55557;49.220;11.150;2023-11-18T10:36:02;12.33;;;8.63;;
68583;SDS011;55557;49.220;11.150;2023-11-18T10:38:32;11.50;;;8.13;;
68583;SDS011;55557;49.220;11.150;2023-11-18T10:41:01;13.47;;;8.90;;
68583;SDS011;55557;49.220;11.150;2023-11-18T10:43:28;13.10;;;8.27;;
68583;SDS011;55557;49.220;11.150;2023-11-18T10:46:06;13.13;;;8.80;;
68583;SDS011;55557;49.220;11.150;2023-11-18T10:48:37;11.30;;;8.27;;
68583;SDS011;55557;49.220;11.150;2023-11-18T10:51:06;12.13;;;8.80;;
68583;SDS011;55557;49.220;11.150;2023-11-18T10:53:32;10.70;;;7.43;;
68583;SDS011;55557;49.220;11.150;2023-11-18T10:55:58;8.60;;;6.87;;
68583;SDS011;55557;49.220;11.150;2023-11-18T10:58:24;10.80;;;7.87;;
68583;SDS011;55557;49.220;11.150;2023-11-18T11:00:50;8.43;;;6.30;;
68583;SDS011;55557;49.220;11.150;2023-11-18T11:03:20;8.50;;;6.27;;
68583;SDS011;55557;49.220;11.150;2023-11-18T11:05:48;13.40;;;7.30;;
68583;SDS011;55557;49.220;11.150;2023-11-18T11:08:14;9.17;;;6.60;;
68583;SDS011;55557;49.220;11.150;2023-11-18T11:10:41;7.40;;;5.93;;
68583;SDS011;55557;49.220;11.150;2023-11-18T11:13:08;10.87;;;7.67;;
68583;SDS011;55557;49.220;11.150;2023-11-18T11:15:36;8.07;;;6.33;;
68583;SDS011;55557;49.220;11.150;2023-11-18T11:18:08;7.20;;;6.23;;
68583;SDS011;55557;49.220;11.150;2023-11-18T11:20:34;6.60;;;5.67;;
68583;SDS011;55557;49.220;11.150;2023-11-18T11:26:06;8.07;;;6.47;;
68583;SDS011;55557;49.220;11.150;2023-11-18T11:31:40;8.10;;;6.00;;
68583;SDS011;55557;49.220;11.150;2023-11-18T11:34:14;6.33;;;4.80;;
68583;SDS011;55557;49.220;11.150;2023-11-18T11:36:47;7.03;;;5.70;;
68583;SDS011;55557;49.220;11.150;2023-11-18T11:39:16;7.03;;;5.67;;
68583;SDS011;55557;49.220;11.150;2023-11-18T11:41:45;32.57;;;15.60;;
68583;SDS011;55557;49.220;11.150;2023-11-18T11:44:12;10.53;;;6.83;;
68583;SDS011;55557;49.220;11.150;2023-11-18T11:46:38;7.73;;;5.90;;
68583;SDS011;55557;49.220;11.150;2023-11-18T11:49:07;7.60;;;5.40;;
68583;SDS011;55557;49.220;11.150;2023-11-18T11:51:49;7.00;;;5.87;;
68583;SDS011;55557;49.220;11.150;2023-11-18T11:54:26;5.30;;;4.33;;
68583;SDS011;55557;49.220;11.150;2023-11-18T11:56:55;5.87;;;4.50;;
68583;SDS011;55557;49.220;11.150;2023-11-18T12:02:23;7.23;;;4.77;;
68583;SDS011;55557;49.220;11.150;2023-11-18T12:04:51;5.80;;;4.50;;
68583;SDS011;55557;49.220;11.150;2023-11-18T12:07:19;10.93;;;3.17;;
68583;SDS011;55557;49.220;11.150;2023-11-18T12:09:48;3.10;;;2.57;;
68583;SDS011;55557;49.220;11.150;2023-11-18T12:12:19;5.60;;;4.20;;
68583;SDS011;55557;49.220;11.150;2023-11-18T12:14:58;5.73;;;3.80;;
68583;SDS011;55557;49.220;11.150;2023-11-18T12:23:05;9.97;;;4.97;;
68583;SDS011;55557;49.220;11.150;2023-11-18T12:25:39;3.53;;;3.20;;
68583;SDS011;55557;49.220;11.150;2023-11-18T12:28:06;7.03;;;5.23;;
68583;SDS011;55557;49.220;11.150;2023-11-18T12:33:04;4.77;;;3.40;;
68583;SDS011;55557;49.220;11.150;2023-11-18T12:41:05;4.03;;;3.37;;
68583;SDS011;55557;49.220;11.150;2023-11-18T12:49:02;4.53;;;3.67;;
68583;SDS011;55557;49.220;11.150;2023-11-18T12:51:30;4.77;;;3.77;;
68583;SDS011;55557;49.220;11.150;2023-11-18T12:53:59;4.13;;;3.47;;
68583;SDS011;55557;49.220;11.150;2023-11-18T12:56:27;5.27;;;3.57;;
68583;SDS011;55557;49.220;11.150;2023-11-18T12:58:55;4.40;;;3.20;;
68583;SDS011;55557;49.220;11.150;2023-11-18T13:01:21;2.67;;;2.40;;
68583;SDS011;55557;49.220;11.150;2023-11-18T13:03:48;3.63;;;3.00;;
68583;SDS011;55557;49.220;11.150;2023-11-18T13:06:14;4.30;;;3.30;;
68583;SDS011;55557;49.220;11.150;2023-11-18T13:08:40;5.00;;;3.07;;
68583;SDS011;55557;49.220;11.150;2023-11-18T13:11:06;4.17;;;3.40;;
68583;SDS011;55557;49.220;11.150;2023-11-18T13:13:37;3.33;;;2.87;;
68583;SDS011;55557;49.220;11.150;2023-11-18T13:16:04;3.30;;;2.57;;
68583;SDS011;55557;49.220;11.150;2023-11-18T13:18:46;3.03;;;2.50;;
68583;SDS011;55557;49.220;11.150;2023-11-18T13:21:15;5.67;;;2.80;;
68583;SDS011;55557;49.220;11.150;2023-11-18T13:23:41;4.30;;;2.90;;
68583;SDS011;55557;49.220;11.150;2023-11-18T13:26:08;4.93;;;3.60;;
68583;SDS011;55557;49.220;11.150;2023-11-18T13:28:34;6.60;;;3.50;;
68583;SDS011;55557;49.220;11.150;2023-11-18T13:31:00;5.10;;;3.90;;
68583;SDS011;55557;49.220;11.150;2023-11-18T13:33:28;7.93;;;4.70;;
68583;SDS011;55557;49.220;11.150;2023-11-18T13:35:54;7.97;;;3.60;;
68583;SDS011;55557;49.220;11.150;2023-11-18T13:38:20;7.97;;;4.17;;
68583;SDS011;55557;49.220;11.150;2023-11-18T13:40:47;4.80;;;3.70;;
68583;SDS011;55557;49.220;11.150;2023-11-18T13:43:13;5.10;;;3.50;;
68583;SDS011;55557;49.220;11.150;2023-11-18T13:45:40;5.43;;;3.53;;
68583;SDS011;55557;49.220;11.150;2023-11-18T13:48:07;4.10;;;3.23;;
68583;SDS011;55557;49.220;11.150;2023-11-18T13:50:36;5.43;;;3.60;;
68583;SDS011;55557;49.220;11.150;2023-11-18T13:53:03;5.33;;;3.50;;
68583;SDS011;55557;49.220;11.150;2023-11-18T13:55:31;5.33;;;4.00;;
68583;SDS011;55557;49.220;11.150;2023-11-18T13:57:57;7.03;;;3.03;;
68583;SDS011;55557;49.220;11.150;2023-11-18T14:00:27;4.23;;;2.80;;
68583;SDS011;55557;49.220;11.150;2023-11-18T14:02:56;4.70;;;3.73;;
68583;SDS011;55557;49.220;11.150;2023-11-18T14:05:22;7.13;;;4.37;;
68583;SDS011;55557;49.220;11.150;2023-11-18T14:07:49;6.67;;;5.13;;
68583;SDS011;55557;49.220;11.150;2023-11-18T14:10:15;6.27;;;4.80;;
68583;SDS011;55557;49.220;11.150;2023-11-18T14:13:00;9.20;;;5.60;;
68583;SDS011;55557;49.220;11.150;2023-11-18T14:15:27;5.00;;;4.17;;
68583;SDS011;55557;49.220;11.150;2023-11-18T14:17:53;8.57;;;3.27;;
68583;SDS011;55557;49.220;11.150;2023-11-18T14:20:19;6.80;;;4.47;;
68583;SDS011;55557;49.220;11.150;2023-11-18T14:22:47;8.50;;;5.87;;
68583;SDS011;55557;49.220;11.150;2023-11-18T14:25:13;10.40;;;7.30;;
68583;SDS011;55557;49.220;11.150;2023-11-18T14:27:39;8.73;;;6.77;;
68583;SDS011;55557;49.220;11.150;2023-11-18T14:30:06;8.10;;;6.93;;
68583;SDS011;55557;49.220;11.150;2023-11-18T14:32:34;9.20;;;5.67;;
68583;SDS011;55557;49.220;11.150;2023-11-18T14:35:00;5.03;;;3.83;;
68583;SDS011;55557;49.220;11.150;2023-11-18T14:37:26;6.57;;;3.30;;
68583;SDS011;55557;49.220;11.150;2023-11-18T14:39:52;3.70;;;2.83;;
68583;SDS011;55557;49.220;11.150;2023-11-18T14:42:19;2.97;;;2.53;;
68583;SDS011;55557;49.220;11.150;2023-11-18T14:44:48;4.97;;;3.30;;
68583;SDS011;55557;49.220;11.150;2023-11-18T14:47:14;5.40;;;2.50;;
68583;SDS011;55557;49.220;11.150;2023-11-18T14:49:41;2.90;;;2.60;;
68583;SDS011;55557;49.220;11.150;2023-11-18T14:52:07;2.80;;;2.23;;
68583;SDS011;55557;49.220;11.150;2023-11-18T14:54:33;3.43;;;2.60;;
68583;SDS011;55557;49.220;11.150;2023-11-18T14:57:01;4.03;;;2.50;;
68583;SDS011;55557;49.220;11.150;2023-11-18T14:59:28;4.63;;;3.33;;
68583;SDS011;55557;49.220;11.150;2023-11-18T15:01:54;3.57;;;2.83;;
68583;SDS011;55557;49.220;11.150;2023-11-18T15:04:22;6.43;;;4.13;;